createdAt,value
2023-05-02T00:03:57.173Z,100674.69
2023-05-02T00:09:00.499Z,100681.50
2023-05-02T00:14:02.155Z,100680.22
2023-05-02T00:19:03.878Z,100681.28
2023-05-02T00:24:07.322Z,100682.03
2023-05-02T00:29:08.955Z,100681.69
2023-05-02T00:34:10.752Z,100680.84
2023-05-02T00:39:14.083Z,100682.81
2023-05-02T00:44:15.847Z,100682.41
2023-05-02T00:49:17.844Z,100688.66
2023-05-02T00:54:21.070Z,100696.53
2023-05-02T00:59:22.990Z,100689.75
2023-05-02T01:04:35.010Z,100702.19
2023-05-02T01:09:47.050Z,100701.31
2023-05-02T01:14:53.210Z,100710.50
2023-05-02T01:19:58.316Z,100704.22
2023-05-02T01:25:08.796Z,100718.69
2023-05-02T01:30:14.696Z,100710.28
2023-05-02T01:35:18.121Z,100713.56
2023-05-02T01:40:21.699Z,100731.38
2023-05-02T01:45:28.037Z,100726.34
2023-05-02T01:50:30.119Z,100717.69
2023-05-02T01:55:36.016Z,100731.06
2023-05-02T02:00:40.570Z,100733.53
2023-05-02T02:05:43.012Z,100746.75
2023-05-02T02:10:49.493Z,100747.53
2023-05-02T02:15:59.195Z,100751.88
2023-05-02T02:21:01.165Z,100753.72
2023-05-02T02:26:04.883Z,100759.88
2023-05-02T02:31:08.029Z,100768.06
2023-05-02T02:36:15.353Z,100775.53
2023-05-02T02:41:26.336Z,100766.88
2023-05-02T02:46:45.124Z,100796.19
2023-05-02T02:51:56.322Z,100793.03
2023-05-02T02:57:01.621Z,100796.56
2023-05-02T03:02:07.640Z,100791.16
2023-05-02T03:07:09.851Z,100806.41
2023-05-02T03:12:12.222Z,100811.91
2023-05-02T03:17:15.436Z,100812.53
2023-05-02T03:22:17.148Z,100817.69
2023-05-02T03:27:18.921Z,100824.31
2023-05-02T03:32:22.167Z,100816.50
2023-05-02T03:37:23.968Z,100822.59
2023-05-02T03:42:25.804Z,100829.94
2023-05-02T03:47:28.898Z,100839.78
2023-05-02T03:52:30.590Z,100842.66
2023-05-02T03:57:32.256Z,100841.72
2023-05-02T04:02:35.500Z,100851.91
2023-05-02T04:07:37.540Z,100862.50
2023-05-02T04:12:39.289Z,100867.16
2023-05-02T04:17:42.575Z,100872.44
2023-05-02T04:22:44.332Z,100876.31
2023-05-02T04:27:45.992Z,100875.09
2023-05-02T04:32:49.158Z,100874.59
2023-05-02T04:37:50.913Z,100882.94
2023-05-02T04:42:52.702Z,100896.13
2023-05-02T04:47:55.941Z,100905.09
2023-05-02T04:52:59.433Z,100912.88
2023-05-02T04:58:01.219Z,100914.44
2023-05-02T05:03:04.403Z,100917.91
2023-05-02T05:08:06.459Z,100935.69
2023-05-02T05:13:08.110Z,100940.03
2023-05-02T05:18:11.357Z,100941.34
2023-05-02T05:23:13.197Z,100949.72
2023-05-02T05:28:14.849Z,100957.81
2023-05-02T05:33:17.969Z,100956.97
2023-05-02T05:38:19.815Z,100958.97
2023-05-02T05:43:21.498Z,100975.47
2023-05-02T05:48:24.716Z,100975.06
2023-05-02T05:53:26.415Z,100977.59
2023-05-02T05:58:28.193Z,100983.88
2023-05-02T06:03:31.628Z,100987.69
2023-05-02T06:08:33.436Z,100991.03
2023-05-02T06:13:35.120Z,100997.22
2023-05-02T06:18:38.290Z,100994.94
2023-05-02T06:23:40.225Z,101007.19
2023-05-02T06:28:41.968Z,101008.72
2023-05-02T06:33:44.937Z,101018.50
2023-05-02T06:38:47.665Z,101024.88
2023-05-02T06:43:49.898Z,101034.81
2023-05-02T06:48:53.179Z,101044.97
2023-05-02T06:53:54.907Z,101043.97
2023-05-02T06:58:56.821Z,101057.19
2023-05-02T07:04:01.139Z,101064.03
2023-05-02T07:09:05.363Z,101067.56
2023-05-02T07:14:07.252Z,101083.72
2023-05-02T07:19:10.466Z,101083.47
2023-05-02T07:24:15.442Z,101085.97
2023-05-02T07:29:17.398Z,101101.75
2023-05-02T07:34:20.441Z,101103.09
2023-05-02T07:39:23.027Z,101106.66
2023-05-02T07:44:24.690Z,101122.53
2023-05-02T07:49:27.932Z,101119.78
2023-05-02T07:54:29.669Z,101128.44
2023-05-02T07:59:31.409Z,101121.34
2023-05-02T08:04:34.686Z,101126.34
2023-05-02T08:09:36.493Z,101135.88
2023-05-02T08:14:38.125Z,101141.41
2023-05-02T08:19:41.128Z,101145.88
2023-05-02T08:24:44.565Z,101139.00
2023-05-02T08:29:46.489Z,101146.09
2023-05-02T08:34:49.508Z,101150.84
2023-05-02T08:39:51.242Z,101153.56
2023-05-02T08:44:52.972Z,101157.69
2023-05-02T08:49:57.729Z,101156.22
2023-05-02T08:55:01.419Z,101156.81
2023-05-02T09:00:04.183Z,101162.03
2023-05-02T09:05:11.549Z,101165.78
2023-05-02T09:10:13.435Z,101172.03
2023-05-02T09:15:19.001Z,101165.50
2023-05-02T09:20:23.998Z,101170.31
2023-05-02T09:25:25.714Z,101168.38
2023-05-02T09:30:27.443Z,101169.63
2023-05-02T09:35:30.668Z,101167.94
2023-05-02T09:40:32.467Z,101171.28
2023-05-02T09:45:34.353Z,101182.44
2023-05-02T09:50:38.533Z,101167.53
2023-05-02T09:55:40.199Z,101166.53
2023-05-02T10:00:43.705Z,101168.75
2023-05-02T10:05:50.422Z,101172.53
2023-05-02T10:10:55.276Z,101171.09
2023-05-02T10:16:00.956Z,101166.69
2023-05-02T10:21:09.301Z,101167.41
2023-05-02T10:26:16.993Z,101181.94
2023-05-02T10:31:19.399Z,101189.47
2023-05-02T10:36:23.320Z,101202.28
2023-05-02T10:41:27.570Z,101197.88
2023-05-02T10:46:34.063Z,101188.56
2023-05-02T10:51:39.842Z,101183.31
2023-05-02T10:57:06.660Z,101178.88
2023-05-02T11:02:41.785Z,101175.00
2023-05-02T11:07:45.022Z,101178.91
2023-05-02T11:12:48.258Z,101173.72
2023-05-02T11:18:00.469Z,101175.28
2023-05-02T11:23:23.451Z,101168.72
2023-05-02T11:28:43.615Z,101167.59
2023-05-02T11:33:56.339Z,101169.38
2023-05-02T11:39:00.267Z,101167.00
2023-05-02T11:44:05.116Z,101164.91
2023-05-02T11:49:09.001Z,101169.38
2023-05-02T11:54:19.185Z,101163.81
2023-05-02T11:59:20.920Z,101185.97
2023-05-02T12:04:22.845Z,101171.97
2023-05-02T12:09:26.174Z,101184.25
2023-05-02T12:14:28.772Z,101184.81
2023-05-02T12:19:30.962Z,101188.72
2023-05-02T12:24:34.302Z,101194.84
2023-05-02T12:29:40.532Z,101194.81
2023-05-02T12:34:42.375Z,101195.22
2023-05-02T12:39:45.629Z,101197.09
2023-05-02T12:44:48.873Z,101202.84
2023-05-02T12:49:51.529Z,101203.69
2023-05-02T12:55:14.856Z,101219.22
2023-05-02T13:00:17.013Z,101227.31
2023-05-02T13:05:19.586Z,101233.44
2023-05-02T13:10:22.981Z,101235.88
2023-05-02T13:15:24.879Z,101234.44
2023-05-02T13:20:26.829Z,101251.47
2023-05-02T13:25:29.931Z,101242.34
2023-05-02T13:30:32.014Z,101235.13
2023-05-02T13:35:35.335Z,101240.69
2023-05-02T13:40:38.669Z,101228.66
2023-05-02T13:45:40.512Z,101248.50
2023-05-02T13:50:42.362Z,101245.19
2023-05-02T13:55:45.734Z,101240.44
2023-05-02T14:00:47.766Z,101242.41
2023-05-02T14:05:49.435Z,101254.38
2023-05-02T14:10:52.901Z,101255.28
2023-05-02T14:15:55.067Z,101255.81
2023-05-02T14:20:56.862Z,101246.25
2023-05-02T14:25:59.887Z,101254.66
2023-05-02T14:31:01.562Z,101263.22
2023-05-02T14:36:03.693Z,101268.66
2023-05-02T14:41:06.815Z,101270.59
2023-05-02T14:46:08.561Z,101271.00
2023-05-02T14:51:10.224Z,101268.78
2023-05-02T14:56:14.007Z,101272.31
2023-05-02T15:01:16.535Z,101268.44
2023-05-02T15:06:18.414Z,101261.88
2023-05-02T15:11:21.490Z,101265.53
2023-05-02T15:16:23.273Z,101272.78
2023-05-02T15:21:25.027Z,101277.56
2023-05-02T15:26:28.257Z,101268.84
2023-05-02T15:31:29.995Z,101270.78
2023-05-02T15:36:31.785Z,101279.88
2023-05-02T15:41:34.872Z,101280.28
2023-05-02T15:46:36.622Z,101288.91
2023-05-02T15:51:38.346Z,101295.66
2023-05-02T15:56:41.869Z,101293.34
2023-05-02T16:01:43.524Z,101305.03
2023-05-02T16:06:45.309Z,101302.91
2023-05-02T16:11:48.328Z,101308.09
2023-05-02T16:16:50.141Z,101301.38
2023-05-02T16:21:51.920Z,101296.09
2023-05-02T16:26:55.009Z,101304.38
2023-05-02T16:31:56.808Z,101300.69
2023-05-02T16:36:58.608Z,101300.50
2023-05-02T16:42:01.678Z,101305.38
2023-05-02T16:47:03.548Z,101317.22
2023-05-02T16:52:05.419Z,101312.50
2023-05-02T16:57:08.460Z,101318.53
2023-05-02T17:02:10.274Z,101324.69
2023-05-02T17:07:12.190Z,101318.59
2023-05-02T17:12:15.409Z,101332.56
2023-05-02T17:17:17.172Z,101334.16
2023-05-02T17:22:19.007Z,101332.50
2023-05-02T17:27:22.517Z,101340.47
2023-05-02T17:32:24.219Z,101331.50
2023-05-02T17:37:25.929Z,101328.94
2023-05-02T17:42:28.998Z,101330.09
2023-05-02T17:47:30.767Z,101325.03
2023-05-02T17:52:32.439Z,101334.25
2023-05-02T17:57:35.497Z,101340.63
2023-05-02T18:02:37.254Z,101344.16
2023-05-02T18:07:38.930Z,101339.59
2023-05-02T18:12:42.007Z,101347.78
2023-05-02T18:17:43.693Z,101358.91
2023-05-02T18:22:45.423Z,101368.09
2023-05-02T18:27:48.455Z,101370.22
2023-05-02T18:32:50.187Z,101375.91
2023-05-02T18:37:51.868Z,101383.06
2023-05-02T18:42:54.871Z,101390.78
2023-05-02T18:47:56.639Z,101398.38
2023-05-02T18:52:58.458Z,101401.41
2023-05-02T18:58:01.563Z,101400.44
2023-05-02T19:03:03.424Z,101411.50
2023-05-02T19:08:05.221Z,101419.47
2023-05-02T19:13:08.347Z,101416.44
2023-05-02T19:18:10.044Z,101423.91
2023-05-02T19:23:19.596Z,101424.94
2023-05-02T19:28:26.474Z,101426.50
2023-05-02T19:33:28.183Z,101433.56
2023-05-02T19:38:29.865Z,101441.25
2023-05-02T19:43:33.135Z,101446.28
2023-05-02T19:48:34.859Z,101448.16
2023-05-02T19:53:38.040Z,101454.88
2023-05-02T19:58:41.216Z,101455.63
2023-05-02T20:03:43.005Z,101461.09
2023-05-02T20:08:44.749Z,101477.38
2023-05-02T20:13:47.805Z,101475.63
2023-05-02T20:18:49.841Z,101485.38
2023-05-02T20:23:51.490Z,101488.75
2023-05-02T20:28:54.526Z,101489.34
2023-05-02T20:33:56.231Z,101492.00
2023-05-02T20:38:57.985Z,101496.00
2023-05-02T20:44:01.052Z,101512.19
2023-05-02T20:49:02.685Z,101514.22
2023-05-02T20:54:04.567Z,101512.09
2023-05-02T20:59:07.596Z,101511.25
2023-05-02T21:04:09.367Z,101518.13
2023-05-02T21:09:11.093Z,101516.75
2023-05-02T21:14:14.176Z,101517.81
2023-05-02T21:19:15.960Z,101520.88
2023-05-02T21:24:17.640Z,101528.41
2023-05-02T21:29:20.690Z,101527.84
2023-05-02T21:34:22.380Z,101543.53
2023-05-02T21:39:26.118Z,101546.16
2023-05-02T21:44:29.316Z,101534.31
2023-05-02T21:49:31.088Z,101544.03
2023-05-02T21:54:32.848Z,101550.47
2023-05-02T21:59:35.908Z,101545.50
2023-05-02T22:04:37.640Z,101549.41
2023-05-02T22:09:39.395Z,101542.41
2023-05-02T22:14:45.794Z,101551.59
2023-05-02T22:19:48.502Z,101555.38
2023-05-02T22:24:50.160Z,101560.31
2023-05-02T22:29:53.275Z,101565.47
2023-05-02T22:34:54.913Z,101569.69
2023-05-02T22:39:56.645Z,101567.50
2023-05-02T22:44:59.841Z,101574.78
2023-05-02T22:50:01.649Z,101573.53
2023-05-02T22:55:04.003Z,101572.03
2023-05-02T23:00:09.119Z,101593.63
2023-05-02T23:05:10.850Z,101589.28
2023-05-02T23:10:12.535Z,101589.94
2023-05-02T23:15:15.591Z,101594.19
2023-05-02T23:20:18.739Z,101587.09
2023-05-02T23:25:21.624Z,101578.53
2023-05-02T23:30:24.657Z,101579.00
2023-05-02T23:35:26.501Z,101587.50
2023-05-02T23:40:28.371Z,101584.59
2023-05-02T23:45:31.362Z,101588.66
2023-05-02T23:50:33.059Z,101591.19
2023-05-02T23:55:34.813Z,101594.31
